sensor_id;sensor_type;location;lat;lon;timestamp;P1;durP1;ratioP1;P2;durP2;ratioP2
61385;SDS011;47256;18.904;-99.054;2022-11-15T00:01:27;17.52;;;8.80;;
61385;SDS011;47256;18.904;-99.054;2022-11-15T00:04:13;15.30;;;7.75;;
61385;SDS011;47256;18.904;-99.054;2022-11-15T00:07:00;15.80;;;9.50;;
61385;SDS011;47256;18.904;-99.054;2022-11-15T00:09:46;25.73;;;9.55;;
61385;SDS011;47256;18.904;-99.054;2022-11-15T00:12:36;32.45;;;9.30;;
61385;SDS011;47256;18.904;-99.054;2022-11-15T00:15:21;19.65;;;10.10;;
61385;SDS011;47256;18.904;-99.054;2022-11-15T00:18:11;12.80;;;8.20;;
61385;SDS011;47256;18.904;-99.054;2022-11-15T00:23:54;20.73;;;8.57;;
61385;SDS011;47256;18.904;-99.054;2022-11-15T00:26:40;61.30;;;19.92;;
61385;SDS011;47256;18.904;-99.054;2022-11-15T00:29:26;36.22;;;13.63;;
61385;SDS011;47256;18.904;-99.054;2022-11-15T00:32:12;13.43;;;9.25;;
61385;SDS011;47256;18.904;-99.054;2022-11-15T00:34:58;20.08;;;9.20;;
61385;SDS011;47256;18.904;-99.054;2022-11-15T00:37:44;16.15;;;9.77;;
61385;SDS011;47256;18.904;-99.054;2022-11-15T00:40:31;19.55;;;9.43;;
61385;SDS011;47256;18.904;-99.054;2022-11-15T00:43:18;17.30;;;8.88;;
61385;SDS011;47256;18.904;-99.054;2022-11-15T00:46:04;19.30;;;10.13;;
61385;SDS011;47256;18.904;-99.054;2022-11-15T00:48:50;47.63;;;14.38;;
61385;SDS011;47256;18.904;-99.054;2022-11-15T00:51:36;112.55;;;29.63;;
61385;SDS011;47256;18.904;-99.054;2022-11-15T00:54:22;54.83;;;19.13;;
61385;SDS011;47256;18.904;-99.054;2022-11-15T00:57:09;24.95;;;12.02;;
61385;SDS011;47256;18.904;-99.054;2022-11-15T00:59:55;24.67;;;11.15;;
61385;SDS011;47256;18.904;-99.054;2022-11-15T01:05:28;19.48;;;10.07;;
61385;SDS011;47256;18.904;-99.054;2022-11-15T01:08:15;18.40;;;10.73;;
61385;SDS011;47256;18.904;-99.054;2022-11-15T01:11:03;20.08;;;11.18;;
61385;SDS011;47256;18.904;-99.054;2022-11-15T01:13:54;19.67;;;12.23;;
61385;SDS011;47256;18.904;-99.054;2022-11-15T01:16:42;20.50;;;12.20;;
61385;SDS011;47256;18.904;-99.054;2022-11-15T01:19:29;18.08;;;11.15;;
61385;SDS011;47256;18.904;-99.054;2022-11-15T01:22:14;36.47;;;11.57;;
61385;SDS011;47256;18.904;-99.054;2022-11-15T01:25:02;17.90;;;10.18;;
61385;SDS011;47256;18.904;-99.054;2022-11-15T01:27:49;14.30;;;10.13;;
61385;SDS011;47256;18.904;-99.054;2022-11-15T01:30:35;17.20;;;10.65;;
61385;SDS011;47256;18.904;-99.054;2022-11-15T01:33:22;16.98;;;10.35;;
61385;SDS011;47256;18.904;-99.054;2022-11-15T01:36:17;14.93;;;9.82;;
61385;SDS011;47256;18.904;-99.054;2022-11-15T01:39:09;16.60;;;10.18;;
61385;SDS011;47256;18.904;-99.054;2022-11-15T01:42:01;16.90;;;9.98;;
61385;SDS011;47256;18.904;-99.054;2022-11-15T01:44:48;17.83;;;9.90;;
61385;SDS011;47256;18.904;-99.054;2022-11-15T01:47:38;18.98;;;11.05;;
61385;SDS011;47256;18.904;-99.054;2022-11-15T01:50:30;17.08;;;11.05;;
61385;SDS011;47256;18.904;-99.054;2022-11-15T01:53:21;17.17;;;10.70;;
61385;SDS011;47256;18.904;-99.054;2022-11-15T01:56:11;17.85;;;9.68;;
61385;SDS011;47256;18.904;-99.054;2022-11-15T01:59:05;19.88;;;11.20;;
61385;SDS011;47256;18.904;-99.054;2022-11-15T02:01:53;19.00;;;10.75;;
61385;SDS011;47256;18.904;-99.054;2022-11-15T02:04:42;17.85;;;8.63;;
61385;SDS011;47256;18.904;-99.054;2022-11-15T02:07:33;15.73;;;10.43;;
61385;SDS011;47256;18.904;-99.054;2022-11-15T02:10:23;14.15;;;8.77;;
61385;SDS011;47256;18.904;-99.054;2022-11-15T02:13:09;13.18;;;8.95;;
61385;SDS011;47256;18.904;-99.054;2022-11-15T02:19:05;21.23;;;9.98;;
61385;SDS011;47256;18.904;-99.054;2022-11-15T02:22:14;21.23;;;9.70;;
61385;SDS011;47256;18.904;-99.054;2022-11-15T02:25:39;16.55;;;10.30;;
61385;SDS011;47256;18.904;-99.054;2022-11-15T02:28:44;13.27;;;9.30;;
61385;SDS011;47256;18.904;-99.054;2022-11-15T02:37:39;14.43;;;9.80;;
61385;SDS011;47256;18.904;-99.054;2022-11-15T02:43:56;15.63;;;9.50;;
61385;SDS011;47256;18.904;-99.054;2022-11-15T02:47:01;18.17;;;9.70;;
61385;SDS011;47256;18.904;-99.054;2022-11-15T02:50:12;14.70;;;9.38;;
61385;SDS011;47256;18.904;-99.054;2022-11-15T02:53:10;17.52;;;10.32;;
61385;SDS011;47256;18.904;-99.054;2022-11-15T02:55:57;21.88;;;11.20;;
61385;SDS011;47256;18.904;-99.054;2022-11-15T02:58:57;17.30;;;9.43;;
61385;SDS011;47256;18.904;-99.054;2022-11-15T03:08:53;18.98;;;10.55;;
61385;SDS011;47256;18.904;-99.054;2022-11-15T03:11:50;19.17;;;9.85;;
61385;SDS011;47256;18.904;-99.054;2022-11-15T03:14:53;15.57;;;9.20;;
61385;SDS011;47256;18.904;-99.054;2022-11-15T03:18:16;18.52;;;9.57;;
61385;SDS011;47256;18.904;-99.054;2022-11-15T03:21:09;18.98;;;11.40;;
61385;SDS011;47256;18.904;-99.054;2022-11-15T03:24:05;23.98;;;10.27;;
61385;SDS011;47256;18.904;-99.054;2022-11-15T03:26:57;14.27;;;9.90;;
61385;SDS011;47256;18.904;-99.054;2022-11-15T03:29:52;19.13;;;10.82;;
61385;SDS011;47256;18.904;-99.054;2022-11-15T03:32:49;17.73;;;10.45;;
61385;SDS011;47256;18.904;-99.054;2022-11-15T03:35:40;16.33;;;10.00;;
61385;SDS011;47256;18.904;-99.054;2022-11-15T03:38:31;19.15;;;9.93;;
61385;SDS011;47256;18.904;-99.054;2022-11-15T03:41:24;15.68;;;10.45;;
61385;SDS011;47256;18.904;-99.054;2022-11-15T03:47:31;22.40;;;10.48;;
61385;SDS011;47256;18.904;-99.054;2022-11-15T03:50:21;17.75;;;11.00;;
61385;SDS011;47256;18.904;-99.054;2022-11-15T03:53:13;18.40;;;10.65;;
61385;SDS011;47256;18.904;-99.054;2022-11-15T03:56:00;19.95;;;10.85;;
61385;SDS011;47256;18.904;-99.054;2022-11-15T03:58:51;17.33;;;10.80;;
61385;SDS011;47256;18.904;-99.054;2022-11-15T04:01:41;15.27;;;9.38;;
61385;SDS011;47256;18.904;-99.054;2022-11-15T04:07:15;23.15;;;9.02;;
61385;SDS011;47256;18.904;-99.054;2022-11-15T04:10:04;20.83;;;10.48;;
61385;SDS011;47256;18.904;-99.054;2022-11-15T04:12:51;16.88;;;10.43;;
61385;SDS011;47256;18.904;-99.054;2022-11-15T04:15:41;18.65;;;10.02;;
61385;SDS011;47256;18.904;-99.054;2022-11-15T04:21:16;25.90;;;10.77;;
61385;SDS011;47256;18.904;-99.054;2022-11-15T04:24:22;23.02;;;11.70;;
61385;SDS011;47256;18.904;-99.054;2022-11-15T04:27:12;22.15;;;12.25;;
61385;SDS011;47256;18.904;-99.054;2022-11-15T04:29:58;17.85;;;11.38;;
61385;SDS011;47256;18.904;-99.054;2022-11-15T04:32:44;20.00;;;12.02;;
61385;SDS011;47256;18.904;-99.054;2022-11-15T04:35:30;19.58;;;11.65;;
61385;SDS011;47256;18.904;-99.054;2022-11-15T04:38:19;19.13;;;11.68;;
61385;SDS011;47256;18.904;-99.054;2022-11-15T04:41:05;17.98;;;10.68;;
61385;SDS011;47256;18.904;-99.054;2022-11-15T04:43:52;18.55;;;9.93;;
61385;SDS011;47256;18.904;-99.054;2022-11-15T04:46:39;19.55;;;10.88;;
61385;SDS011;47256;18.904;-99.054;2022-11-15T04:49:29;19.85;;;10.45;;
61385;SDS011;47256;18.904;-99.054;2022-11-15T04:52:17;17.70;;;10.02;;
61385;SDS011;47256;18.904;-99.054;2022-11-15T04:55:05;17.85;;;9.93;;
61385;SDS011;47256;18.904;-99.054;2022-11-15T04:57:57;21.27;;;10.23;;
61385;SDS011;47256;18.904;-99.054;2022-11-15T05:00:50;16.45;;;10.35;;
61385;SDS011;47256;18.904;-99.054;2022-11-15T05:03:36;21.10;;;10.77;;
61385;SDS011;47256;18.904;-99.054;2022-11-15T05:06:44;18.73;;;9.70;;
61385;SDS011;47256;18.904;-99.054;2022-11-15T05:09:36;17.70;;;11.02;;
61385;SDS011;47256;18.904;-99.054;2022-11-15T05:12:24;26.75;;;11.15;;
61385;SDS011;47256;18.904;-99.054;2022-11-15T05:15:10;18.73;;;9.35;;
61385;SDS011;47256;18.904;-99.054;2022-11-15T05:17:59;15.18;;;10.05;;
61385;SDS011;47256;18.904;-99.054;2022-11-15T05:20:48;15.82;;;9.45;;
61385;SDS011;47256;18.904;-99.054;2022-11-15T05:23:36;22.38;;;10.40;;
61385;SDS011;47256;18.904;-99.054;2022-11-15T05:26:24;16.58;;;9.75;;
61385;SDS011;47256;18.904;-99.054;2022-11-15T05:29:10;18.95;;;10.52;;
61385;SDS011;47256;18.904;-99.054;2022-11-15T05:31:57;20.88;;;10.32;;
61385;SDS011;47256;18.904;-99.054;2022-11-15T05:34:43;16.35;;;9.10;;
61385;SDS011;47256;18.904;-99.054;2022-11-15T05:37:30;16.67;;;9.50;;
61385;SDS011;47256;18.904;-99.054;2022-11-15T05:40:17;13.60;;;9.55;;
61385;SDS011;47256;18.904;-99.054;2022-11-15T05:43:03;21.35;;;10.38;;
61385;SDS011;47256;18.904;-99.054;2022-11-15T05:45:51;15.13;;;9.40;;
61385;SDS011;47256;18.904;-99.054;2022-11-15T05:48:37;20.42;;;10.20;;
61385;SDS011;47256;18.904;-99.054;2022-11-15T05:51:35;18.27;;;9.70;;
61385;SDS011;47256;18.904;-99.054;2022-11-15T05:54:22;19.55;;;9.55;;
61385;SDS011;47256;18.904;-99.054;2022-11-15T05:57:10;15.38;;;9.73;;
61385;SDS011;47256;18.904;-99.054;2022-11-15T05:59:56;19.83;;;9.00;;
61385;SDS011;47256;18.904;-99.054;2022-11-15T06:02:49;19.80;;;10.18;;
61385;SDS011;47256;18.904;-99.054;2022-11-15T06:05:40;14.77;;;9.43;;
61385;SDS011;47256;18.904;-99.054;2022-11-15T06:08:28;20.23;;;9.65;;
61385;SDS011;47256;18.904;-99.054;2022-11-15T06:11:14;23.17;;;10.27;;
61385;SDS011;47256;18.904;-99.054;2022-11-15T06:14:00;16.60;;;9.43;;
61385;SDS011;47256;18.904;-99.054;2022-11-15T06:16:46;16.75;;;9.85;;
61385;SDS011;47256;18.904;-99.054;2022-11-15T06:19:33;16.90;;;10.35;;
61385;SDS011;47256;18.904;-99.054;2022-11-15T06:22:18;19.50;;;10.70;;
61385;SDS011;47256;18.904;-99.054;2022-11-15T06:25:08;20.77;;;11.13;;
61385;SDS011;47256;18.904;-99.054;2022-11-15T06:27:54;18.08;;;11.27;;
61385;SDS011;47256;18.904;-99.054;2022-11-15T06:30:41;15.88;;;9.38;;
61385;SDS011;47256;18.904;-99.054;2022-11-15T06:33:26;19.92;;;10.98;;
61385;SDS011;47256;18.904;-99.054;2022-11-15T06:39:27;16.48;;;10.38;;
61385;SDS011;47256;18.904;-99.054;2022-11-15T06:42:14;15.38;;;10.35;;
61385;SDS011;47256;18.904;-99.054;2022-11-15T06:45:00;17.95;;;9.90;;
61385;SDS011;47256;18.904;-99.054;2022-11-15T06:47:47;28.90;;;11.43;;
61385;SDS011;47256;18.904;-99.054;2022-11-15T06:50:32;16.20;;;9.85;;
61385;SDS011;47256;18.904;-99.054;2022-11-15T06:53:19;15.48;;;9.45;;
61385;SDS011;47256;18.904;-99.054;2022-11-15T06:56:05;17.90;;;10.18;;
61385;SDS011;47256;18.904;-99.054;2022-11-15T06:58:52;17.85;;;10.65;;
61385;SDS011;47256;18.904;-99.054;2022-11-15T07:01:38;14.13;;;9.48;;
61385;SDS011;47256;18.904;-99.054;2022-11-15T07:04:27;20.85;;;10.40;;
61385;SDS011;47256;18.904;-99.054;2022-11-15T07:07:13;16.70;;;9.73;;
61385;SDS011;47256;18.904;-99.054;2022-11-15T07:09:59;21.30;;;10.95;;
61385;SDS011;47256;18.904;-99.054;2022-11-15T07:12:49;18.35;;;9.38;;
61385;SDS011;47256;18.904;-99.054;2022-11-15T07:15:36;17.55;;;9.98;;
61385;SDS011;47256;18.904;-99.054;2022-11-15T07:18:23;17.98;;;9.57;;
61385;SDS011;47256;18.904;-99.054;2022-11-15T07:21:09;13.70;;;8.93;;
61385;SDS011;47256;18.904;-99.054;2022-11-15T07:23:56;18.30;;;8.88;;
61385;SDS011;47256;18.904;-99.054;2022-11-15T07:26:43;16.70;;;9.87;;
61385;SDS011;47256;18.904;-99.054;2022-11-15T07:29:28;17.70;;;9.02;;
61385;SDS011;47256;18.904;-99.054;2022-11-15T07:32:14;16.27;;;9.93;;
61385;SDS011;47256;18.904;-99.054;2022-11-15T07:35:00;18.85;;;9.20;;
61385;SDS011;47256;18.904;-99.054;2022-11-15T07:38:20;16.13;;;9.23;;
61385;SDS011;47256;18.904;-99.054;2022-11-15T07:41:06;18.42;;;8.75;;
61385;SDS011;47256;18.904;-99.054;2022-11-15T07:43:52;14.65;;;9.95;;
61385;SDS011;47256;18.904;-99.054;2022-11-15T07:46:39;18.08;;;10.68;;
61385;SDS011;47256;18.904;-99.054;2022-11-15T07:49:27;24.33;;;12.95;;
61385;SDS011;47256;18.904;-99.054;2022-11-15T07:52:13;19.67;;;11.35;;
61385;SDS011;47256;18.904;-99.054;2022-11-15T07:55:01;25.65;;;13.60;;
61385;SDS011;47256;18.904;-99.054;2022-11-15T07:57:47;50.03;;;21.50;;
61385;SDS011;47256;18.904;-99.054;2022-11-15T08:00:34;89.15;;;27.73;;
61385;SDS011;47256;18.904;-99.054;2022-11-15T08:03:22;118.35;;;35.33;;
61385;SDS011;47256;18.904;-99.054;2022-11-15T08:06:08;101.72;;;32.35;;
61385;SDS011;47256;18.904;-99.054;2022-11-15T08:08:55;99.47;;;35.38;;
61385;SDS011;47256;18.904;-99.054;2022-11-15T08:11:43;101.30;;;35.08;;
61385;SDS011;47256;18.904;-99.054;2022-11-15T08:14:29;142.57;;;42.40;;
61385;SDS011;47256;18.904;-99.054;2022-11-15T08:17:15;132.75;;;42.92;;
61385;SDS011;47256;18.904;-99.054;2022-11-15T08:20:02;105.53;;;37.50;;
61385;SDS011;47256;18.904;-99.054;2022-11-15T08:22:51;81.72;;;27.80;;
61385;SDS011;47256;18.904;-99.054;2022-11-15T08:25:39;74.38;;;29.23;;
61385;SDS011;47256;18.904;-99.054;2022-11-15T08:28:26;56.20;;;19.75;;
61385;SDS011;47256;18.904;-99.054;2022-11-15T08:31:13;31.95;;;14.48;;
61385;SDS011;47256;18.904;-99.054;2022-11-15T08:34:01;60.75;;;21.45;;
61385;SDS011;47256;18.904;-99.054;2022-11-15T08:36:48;41.03;;;16.23;;
61385;SDS011;47256;18.904;-99.054;2022-11-15T08:39:37;54.97;;;18.30;;
61385;SDS011;47256;18.904;-99.054;2022-11-15T08:42:22;63.97;;;20.15;;
61385;SDS011;47256;18.904;-99.054;2022-11-15T08:45:08;29.00;;;13.27;;
61385;SDS011;47256;18.904;-99.054;2022-11-15T08:47:54;21.00;;;10.77;;
61385;SDS011;47256;18.904;-99.054;2022-11-15T08:50:42;14.88;;;8.77;;
61385;SDS011;47256;18.904;-99.054;2022-11-15T08:53:29;12.32;;;8.15;;
61385;SDS011;47256;18.904;-99.054;2022-11-15T08:56:15;13.95;;;8.35;;
61385;SDS011;47256;18.904;-99.054;2022-11-15T08:59:01;14.65;;;8.73;;
61385;SDS011;47256;18.904;-99.054;2022-11-15T09:01:47;12.70;;;7.72;;
61385;SDS011;47256;18.904;-99.054;2022-11-15T09:04:34;15.38;;;8.20;;
61385;SDS011;47256;18.904;-99.054;2022-11-15T09:07:20;14.48;;;8.30;;
61385;SDS011;47256;18.904;-99.054;2022-11-15T09:10:05;16.17;;;8.98;;
61385;SDS011;47256;18.904;-99.054;2022-11-15T09:15:38;20.13;;;8.77;;
61385;SDS011;47256;18.904;-99.054;2022-11-15T09:18:26;18.65;;;9.20;;
61385;SDS011;47256;18.904;-99.054;2022-11-15T09:21:12;16.77;;;9.20;;
61385;SDS011;47256;18.904;-99.054;2022-11-15T09:24:01;14.85;;;9.48;;
61385;SDS011;47256;18.904;-99.054;2022-11-15T09:26:50;46.88;;;17.00;;
61385;SDS011;47256;18.904;-99.054;2022-11-15T09:29:37;46.30;;;17.77;;
61385;SDS011;47256;18.904;-99.054;2022-11-15T09:32:23;51.03;;;18.20;;
61385;SDS011;47256;18.904;-99.054;2022-11-15T09:35:15;51.03;;;18.77;;
61385;SDS011;47256;18.904;-99.054;2022-11-15T09:38:07;57.17;;;19.33;;
61385;SDS011;47256;18.904;-99.054;2022-11-15T09:44:26;35.92;;;15.43;;
61385;SDS011;47256;18.904;-99.054;2022-11-15T09:50:51;37.25;;;14.77;;
61385;SDS011;47256;18.904;-99.054;2022-11-15T09:56:37;37.50;;;15.32;;
61385;SDS011;47256;18.904;-99.054;2022-11-15T09:59:20;28.63;;;13.65;;
61385;SDS011;47256;18.904;-99.054;2022-11-15T10:05:00;13.27;;;8.85;;
61385;SDS011;47256;18.904;-99.054;2022-11-15T10:07:34;32.15;;;12.85;;
61385;SDS011;47256;18.904;-99.054;2022-11-15T10:11:02;26.42;;;10.30;;
61385;SDS011;47256;18.904;-99.054;2022-11-15T10:13:28;25.10;;;10.85;;
61385;SDS011;47256;18.904;-99.054;2022-11-15T10:24:18;28.20;;;12.05;;
61385;SDS011;47256;18.904;-99.054;2022-11-15T10:26:52;31.48;;;13.38;;
61385;SDS011;47256;18.904;-99.054;2022-11-15T10:29:22;41.60;;;17.08;;
61385;SDS011;47256;18.904;-99.054;2022-11-15T10:31:50;69.35;;;25.98;;
61385;SDS011;47256;18.904;-99.054;2022-11-15T10:34:22;74.50;;;26.52;;
61385;SDS011;47256;18.904;-99.054;2022-11-15T10:36:57;53.75;;;19.20;;
61385;SDS011;47256;18.904;-99.054;2022-11-15T10:39:27;38.67;;;14.30;;
61385;SDS011;47256;18.904;-99.054;2022-11-15T10:41:54;22.70;;;12.25;;
61385;SDS011;47256;18.904;-99.054;2022-11-15T10:44:28;32.08;;;11.13;;
61385;SDS011;47256;18.904;-99.054;2022-11-15T10:49:23;30.85;;;13.15;;
61385;SDS011;47256;18.904;-99.054;2022-11-15T10:51:56;24.58;;;10.40;;
61385;SDS011;47256;18.904;-99.054;2022-11-15T10:57:25;14.50;;;8.57;;
61385;SDS011;47256;18.904;-99.054;2022-11-15T11:00:00;20.75;;;10.63;;
61385;SDS011;47256;18.904;-99.054;2022-11-15T11:05:04;49.88;;;15.70;;
61385;SDS011;47256;18.904;-99.054;2022-11-15T11:07:43;35.10;;;14.30;;
61385;SDS011;47256;18.904;-99.054;2022-11-15T11:10:26;48.83;;;18.23;;
61385;SDS011;47256;18.904;-99.054;2022-11-15T11:12:54;45.30;;;17.55;;
61385;SDS011;47256;18.904;-99.054;2022-11-15T11:15:22;29.20;;;14.30;;
61385;SDS011;47256;18.904;-99.054;2022-11-15T11:18:07;35.65;;;14.35;;
61385;SDS011;47256;18.904;-99.054;2022-11-15T11:23:37;18.90;;;9.32;;
61385;SDS011;47256;18.904;-99.054;2022-11-15T11:29:02;25.27;;;10.23;;
61385;SDS011;47256;18.904;-99.054;2022-11-15T11:31:46;19.27;;;10.20;;
61385;SDS011;47256;18.904;-99.054;2022-11-15T11:37:19;24.40;;;11.90;;
61385;SDS011;47256;18.904;-99.054;2022-11-15T11:48:18;68.72;;;21.10;;
61385;SDS011;47256;18.904;-99.054;2022-11-15T11:53:57;23.83;;;10.98;;
61385;SDS011;47256;18.904;-99.054;2022-11-15T11:56:45;16.02;;;9.23;;
61385;SDS011;47256;18.904;-99.054;2022-11-15T11:59:19;15.95;;;8.55;;
61385;SDS011;47256;18.904;-99.054;2022-11-15T12:02:14;15.13;;;8.07;;
61385;SDS011;47256;18.904;-99.054;2022-11-15T12:04:53;17.95;;;7.57;;
61385;SDS011;47256;18.904;-99.054;2022-11-15T12:07:33;16.35;;;8.75;;
61385;SDS011;47256;18.904;-99.054;2022-11-15T12:10:14;28.33;;;12.45;;
61385;SDS011;47256;18.904;-99.054;2022-11-15T12:18:29;20.10;;;8.90;;
61385;SDS011;47256;18.904;-99.054;2022-11-15T12:20:57;17.92;;;8.30;;
61385;SDS011;47256;18.904;-99.054;2022-11-15T12:23:37;19.60;;;8.23;;
61385;SDS011;47256;18.904;-99.054;2022-11-15T12:26:10;15.63;;;8.85;;
61385;SDS011;47256;18.904;-99.054;2022-11-15T12:29:03;13.25;;;7.95;;
61385;SDS011;47256;18.904;-99.054;2022-11-15T12:31:44;13.80;;;7.80;;
61385;SDS011;47256;18.904;-99.054;2022-11-15T12:36:46;14.15;;;8.40;;
61385;SDS011;47256;18.904;-99.054;2022-11-15T12:39:15;19.27;;;9.15;;
61385;SDS011;47256;18.904;-99.054;2022-11-15T12:52:04;15.30;;;7.90;;
61385;SDS011;47256;18.904;-99.054;2022-11-15T13:02:48;13.00;;;8.15;;
61385;SDS011;47256;18.904;-99.054;2022-11-15T13:08:06;25.90;;;10.38;;
61385;SDS011;47256;18.904;-99.054;2022-11-15T13:10:34;30.33;;;11.07;;
61385;SDS011;47256;18.904;-99.054;2022-11-15T13:13:04;28.80;;;12.32;;
61385;SDS011;47256;18.904;-99.054;2022-11-15T13:18:32;21.02;;;10.93;;
61385;SDS011;47256;18.904;-99.054;2022-11-15T13:21:02;26.88;;;11.43;;
61385;SDS011;47256;18.904;-99.054;2022-11-15T13:23:52;23.25;;;10.77;;
61385;SDS011;47256;18.904;-99.054;2022-11-15T13:26:20;28.98;;;12.27;;
61385;SDS011;47256;18.904;-99.054;2022-11-15T13:28:49;24.13;;;10.77;;
61385;SDS011;47256;18.904;-99.054;2022-11-15T13:33:51;19.48;;;10.32;;
61385;SDS011;47256;18.904;-99.054;2022-11-15T13:36:23;22.90;;;10.65;;
61385;SDS011;47256;18.904;-99.054;2022-11-15T13:38:54;35.75;;;10.88;;
61385;SDS011;47256;18.904;-99.054;2022-11-15T13:41:31;32.00;;;12.20;;
61385;SDS011;47256;18.904;-99.054;2022-11-15T13:44:05;38.15;;;11.60;;
61385;SDS011;47256;18.904;-99.054;2022-11-15T13:47:00;24.90;;;11.30;;
61385;SDS011;47256;18.904;-99.054;2022-11-15T13:49:36;21.30;;;11.77;;
61385;SDS011;47256;18.904;-99.054;2022-11-15T13:52:05;25.23;;;12.88;;
61385;SDS011;47256;18.904;-99.054;2022-11-15T13:54:45;24.52;;;12.32;;
61385;SDS011;47256;18.904;-99.054;2022-11-15T13:57:25;31.13;;;14.20;;
61385;SDS011;47256;18.904;-99.054;2022-11-15T14:06:10;25.45;;;12.73;;
61385;SDS011;47256;18.904;-99.054;2022-11-15T14:08:58;30.02;;;13.45;;
61385;SDS011;47256;18.904;-99.054;2022-11-15T14:11:59;25.73;;;13.48;;
61385;SDS011;47256;18.904;-99.054;2022-11-15T14:14:28;23.48;;;12.55;;
61385;SDS011;47256;18.904;-99.054;2022-11-15T14:17:00;22.95;;;11.23;;
61385;SDS011;47256;18.904;-99.054;2022-11-15T14:25:06;24.80;;;12.43;;
61385;SDS011;47256;18.904;-99.054;2022-11-15T14:30:55;20.35;;;11.38;;
61385;SDS011;47256;18.904;-99.054;2022-11-15T14:36:13;23.15;;;11.77;;
61385;SDS011;47256;18.904;-99.054;2022-11-15T14:38:43;14.68;;;8.85;;
61385;SDS011;47256;18.904;-99.054;2022-11-15T14:41:34;16.45;;;9.85;;
61385;SDS011;47256;18.904;-99.054;2022-11-15T14:44:10;29.50;;;10.65;;
61385;SDS011;47256;18.904;-99.054;2022-11-15T14:46:38;19.85;;;10.85;;
61385;SDS011;47256;18.904;-99.054;2022-11-15T14:49:05;20.25;;;10.32;;
61385;SDS011;47256;18.904;-99.054;2022-11-15T14:51:32;19.90;;;11.63;;
61385;SDS011;47256;18.904;-99.054;2022-11-15T14:54:00;19.08;;;9.88;;
61385;SDS011;47256;18.904;-99.054;2022-11-15T14:56:27;17.20;;;9.02;;
61385;SDS011;47256;18.904;-99.054;2022-11-15T14:58:54;19.38;;;10.45;;
61385;SDS011;47256;18.904;-99.054;2022-11-15T15:01:25;21.40;;;9.85;;
61385;SDS011;47256;18.904;-99.054;2022-11-15T15:03:53;18.10;;;10.50;;
61385;SDS011;47256;18.904;-99.054;2022-11-15T15:06:23;26.27;;;10.88;;
61385;SDS011;47256;18.904;-99.054;2022-11-15T15:08:51;20.58;;;12.68;;
61385;SDS011;47256;18.904;-99.054;2022-11-15T15:11:22;22.90;;;13.00;;
61385;SDS011;47256;18.904;-99.054;2022-11-15T15:13:52;23.10;;;12.95;;
61385;SDS011;47256;18.904;-99.054;2022-11-15T15:16:24;24.15;;;12.38;;
61385;SDS011;47256;18.904;-99.054;2022-11-15T15:18:51;22.17;;;13.02;;
61385;SDS011;47256;18.904;-99.054;2022-11-15T15:21:23;22.00;;;11.70;;
61385;SDS011;47256;18.904;-99.054;2022-11-15T15:23:53;18.60;;;12.02;;
61385;SDS011;47256;18.904;-99.054;2022-11-15T15:26:23;22.88;;;12.95;;
61385;SDS011;47256;18.904;-99.054;2022-11-15T15:28:52;21.80;;;12.98;;
61385;SDS011;47256;18.904;-99.054;2022-11-15T15:31:20;22.27;;;12.85;;
61385;SDS011;47256;18.904;-99.054;2022-11-15T15:33:46;23.20;;;12.93;;
61385;SDS011;47256;18.904;-99.054;2022-11-15T15:36:16;25.58;;;13.63;;
61385;SDS011;47256;18.904;-99.054;2022-11-15T15:38:44;23.70;;;12.35;;
61385;SDS011;47256;18.904;-99.054;2022-11-15T15:41:16;16.13;;;11.32;;
61385;SDS011;47256;18.904;-99.054;2022-11-15T15:43:46;22.15;;;10.70;;
61385;SDS011;47256;18.904;-99.054;2022-11-15T15:46:15;15.23;;;10.85;;
61385;SDS011;47256;18.904;-99.054;2022-11-15T15:48:43;22.45;;;10.75;;
61385;SDS011;47256;18.904;-99.054;2022-11-15T15:51:11;17.35;;;10.07;;
61385;SDS011;47256;18.904;-99.054;2022-11-15T15:53:39;17.75;;;10.25;;
61385;SDS011;47256;18.904;-99.054;2022-11-15T15:56:07;17.95;;;10.45;;
61385;SDS011;47256;18.904;-99.054;2022-11-15T15:58:36;19.05;;;11.35;;
61385;SDS011;47256;18.904;-99.054;2022-11-15T16:01:03;28.55;;;11.27;;
61385;SDS011;47256;18.904;-99.054;2022-11-15T16:03:31;18.60;;;11.20;;
61385;SDS011;47256;18.904;-99.054;2022-11-15T16:06:03;16.15;;;10.15;;
61385;SDS011;47256;18.904;-99.054;2022-11-15T16:08:32;16.75;;;11.07;;
61385;SDS011;47256;18.904;-99.054;2022-11-15T16:10:59;25.45;;;11.32;;
61385;SDS011;47256;18.904;-99.054;2022-11-15T16:13:27;21.60;;;11.88;;
61385;SDS011;47256;18.904;-99.054;2022-11-15T16:15:54;19.15;;;10.98;;
61385;SDS011;47256;18.904;-99.054;2022-11-15T16:18:22;17.95;;;10.60;;
61385;SDS011;47256;18.904;-99.054;2022-11-15T16:20:49;18.88;;;10.85;;
61385;SDS011;47256;18.904;-99.054;2022-11-15T16:23:22;22.90;;;10.73;;
61385;SDS011;47256;18.904;-99.054;2022-11-15T16:25:50;16.38;;;10.32;;
61385;SDS011;47256;18.904;-99.054;2022-11-15T16:28:23;18.17;;;10.57;;
61385;SDS011;47256;18.904;-99.054;2022-11-15T16:31:01;17.33;;;10.35;;
61385;SDS011;47256;18.904;-99.054;2022-11-15T16:33:37;16.70;;;10.57;;
61385;SDS011;47256;18.904;-99.054;2022-11-15T16:36:11;16.33;;;8.48;;
61385;SDS011;47256;18.904;-99.054;2022-11-15T16:38:47;11.05;;;7.70;;
61385;SDS011;47256;18.904;-99.054;2022-11-15T16:41:15;11.38;;;7.63;;
61385;SDS011;47256;18.904;-99.054;2022-11-15T16:43:50;14.95;;;8.70;;
61385;SDS011;47256;18.904;-99.054;2022-11-15T16:46:18;11.27;;;8.30;;
61385;SDS011;47256;18.904;-99.054;2022-11-15T16:48:47;15.32;;;8.10;;
61385;SDS011;47256;18.904;-99.054;2022-11-15T16:51:15;14.95;;;8.30;;
61385;SDS011;47256;18.904;-99.054;2022-11-15T16:53:43;15.80;;;8.38;;
61385;SDS011;47256;18.904;-99.054;2022-11-15T16:56:18;12.50;;;8.32;;
61385;SDS011;47256;18.904;-99.054;2022-11-15T16:58:49;15.32;;;8.32;;
61385;SDS011;47256;18.904;-99.054;2022-11-15T17:01:18;14.07;;;8.48;;
61385;SDS011;47256;18.904;-99.054;2022-11-15T17:03:50;13.10;;;8.48;;
61385;SDS011;47256;18.904;-99.054;2022-11-15T17:06:19;17.02;;;9.18;;
61385;SDS011;47256;18.904;-99.054;2022-11-15T17:08:47;12.85;;;9.15;;
61385;SDS011;47256;18.904;-99.054;2022-11-15T17:11:17;17.20;;;8.50;;
61385;SDS011;47256;18.904;-99.054;2022-11-15T17:13:47;14.85;;;9.32;;
61385;SDS011;47256;18.904;-99.054;2022-11-15T17:16:15;14.80;;;8.45;;
61385;SDS011;47256;18.904;-99.054;2022-11-15T17:18:43;12.93;;;8.60;;
61385;SDS011;47256;18.904;-99.054;2022-11-15T17:21:17;15.70;;;9.88;;
61385;SDS011;47256;18.904;-99.054;2022-11-15T17:23:49;15.68;;;9.27;;
61385;SDS011;47256;18.904;-99.054;2022-11-15T17:26:19;17.88;;;8.88;;
61385;SDS011;47256;18.904;-99.054;2022-11-15T17:28:55;13.30;;;8.68;;
61385;SDS011;47256;18.904;-99.054;2022-11-15T17:31:23;15.35;;;8.98;;
61385;SDS011;47256;18.904;-99.054;2022-11-15T17:33:50;13.98;;;9.20;;
61385;SDS011;47256;18.904;-99.054;2022-11-15T17:36:18;18.25;;;10.13;;
61385;SDS011;47256;18.904;-99.054;2022-11-15T17:38:47;20.73;;;9.45;;
61385;SDS011;47256;18.904;-99.054;2022-11-15T17:41:18;14.13;;;8.48;;
61385;SDS011;47256;18.904;-99.054;2022-11-15T17:43:49;15.13;;;9.65;;
61385;SDS011;47256;18.904;-99.054;2022-11-15T17:46:17;10.82;;;7.55;;
61385;SDS011;47256;18.904;-99.054;2022-11-15T17:48:46;14.43;;;7.38;;